sensor_id;sensor_type;location;lat;lon;timestamp;P1;durP1;ratioP1;P2;durP2;ratioP2
15929;SDS011;8064;51.142;4.780;2024-02-28T00:02:14;11.37;;;7.30;;
15929;SDS011;8064;51.142;4.780;2024-02-28T00:04:40;11.73;;;7.10;;
15929;SDS011;8064;51.142;4.780;2024-02-28T00:07:07;9.70;;;6.70;;
15929;SDS011;8064;51.142;4.780;2024-02-28T00:09:33;9.60;;;6.43;;
15929;SDS011;8064;51.142;4.780;2024-02-28T00:11:58;9.30;;;6.57;;
15929;SDS011;8064;51.142;4.780;2024-02-28T00:14:24;6.87;;;5.83;;
15929;SDS011;8064;51.142;4.780;2024-02-28T00:16:50;8.63;;;6.07;;
15929;SDS011;8064;51.142;4.780;2024-02-28T00:19:15;8.67;;;6.37;;
15929;SDS011;8064;51.142;4.780;2024-02-28T00:21:43;8.07;;;6.67;;
15929;SDS011;8064;51.142;4.780;2024-02-28T00:24:09;9.73;;;6.33;;
15929;SDS011;8064;51.142;4.780;2024-02-28T00:26:35;10.17;;;6.47;;
15929;SDS011;8064;51.142;4.780;2024-02-28T00:29:01;8.70;;;6.60;;
15929;SDS011;8064;51.142;4.780;2024-02-28T00:31:27;8.87;;;6.50;;
15929;SDS011;8064;51.142;4.780;2024-02-28T00:33:53;9.23;;;6.20;;
15929;SDS011;8064;51.142;4.780;2024-02-28T00:36:19;8.97;;;6.27;;
15929;SDS011;8064;51.142;4.780;2024-02-28T00:38:45;8.77;;;6.47;;
15929;SDS011;8064;51.142;4.780;2024-02-28T00:41:10;9.23;;;5.63;;
15929;SDS011;8064;51.142;4.780;2024-02-28T00:43:36;11.63;;;5.90;;
15929;SDS011;8064;51.142;4.780;2024-02-28T00:46:02;7.53;;;5.83;;
15929;SDS011;8064;51.142;4.780;2024-02-28T00:48:28;10.03;;;7.00;;
15929;SDS011;8064;51.142;4.780;2024-02-28T00:50:54;9.33;;;6.50;;
15929;SDS011;8064;51.142;4.780;2024-02-28T00:53:20;7.37;;;6.13;;
15929;SDS011;8064;51.142;4.780;2024-02-28T00:55:46;7.90;;;6.10;;
15929;SDS011;8064;51.142;4.780;2024-02-28T00:58:11;7.63;;;6.03;;
15929;SDS011;8064;51.142;4.780;2024-02-28T01:00:37;7.77;;;6.13;;
15929;SDS011;8064;51.142;4.780;2024-02-28T01:03:03;6.23;;;5.43;;
15929;SDS011;8064;51.142;4.780;2024-02-28T01:05:29;7.63;;;5.40;;
15929;SDS011;8064;51.142;4.780;2024-02-28T01:07:55;6.73;;;5.27;;
15929;SDS011;8064;51.142;4.780;2024-02-28T01:10:21;10.50;;;6.10;;
15929;SDS011;8064;51.142;4.780;2024-02-28T01:12:47;8.87;;;6.60;;
15929;SDS011;8064;51.142;4.780;2024-02-28T01:15:13;6.87;;;5.77;;
15929;SDS011;8064;51.142;4.780;2024-02-28T01:17:39;10.20;;;5.63;;
15929;SDS011;8064;51.142;4.780;2024-02-28T01:20:05;7.70;;;5.73;;
15929;SDS011;8064;51.142;4.780;2024-02-28T01:22:33;8.50;;;6.60;;
15929;SDS011;8064;51.142;4.780;2024-02-28T01:24:59;9.33;;;6.20;;
15929;SDS011;8064;51.142;4.780;2024-02-28T01:27:25;7.43;;;6.17;;
15929;SDS011;8064;51.142;4.780;2024-02-28T01:29:50;9.10;;;6.03;;
15929;SDS011;8064;51.142;4.780;2024-02-28T01:32:18;8.37;;;5.83;;
15929;SDS011;8064;51.142;4.780;2024-02-28T01:34:44;7.57;;;5.07;;
15929;SDS011;8064;51.142;4.780;2024-02-28T01:37:11;7.23;;;5.10;;
15929;SDS011;8064;51.142;4.780;2024-02-28T01:39:37;9.13;;;5.70;;
15929;SDS011;8064;51.142;4.780;2024-02-28T01:42:03;6.90;;;5.97;;
15929;SDS011;8064;51.142;4.780;2024-02-28T01:44:28;8.50;;;5.60;;
15929;SDS011;8064;51.142;4.780;2024-02-28T01:46:54;7.27;;;5.80;;
15929;SDS011;8064;51.142;4.780;2024-02-28T01:49:22;7.67;;;6.03;;
15929;SDS011;8064;51.142;4.780;2024-02-28T01:51:48;8.53;;;6.43;;
15929;SDS011;8064;51.142;4.780;2024-02-28T01:54:16;7.03;;;5.47;;
15929;SDS011;8064;51.142;4.780;2024-02-28T01:56:43;7.53;;;5.73;;
15929;SDS011;8064;51.142;4.780;2024-02-28T01:59:09;8.90;;;5.77;;
15929;SDS011;8064;51.142;4.780;2024-02-28T02:01:36;7.83;;;5.93;;
15929;SDS011;8064;51.142;4.780;2024-02-28T02:04:03;7.60;;;6.10;;
15929;SDS011;8064;51.142;4.780;2024-02-28T02:06:29;7.30;;;5.77;;
15929;SDS011;8064;51.142;4.780;2024-02-28T02:08:55;10.37;;;6.10;;
15929;SDS011;8064;51.142;4.780;2024-02-28T02:11:22;8.77;;;6.13;;
15929;SDS011;8064;51.142;4.780;2024-02-28T02:13:49;8.37;;;6.40;;
15929;SDS011;8064;51.142;4.780;2024-02-28T02:16:15;7.17;;;5.67;;
15929;SDS011;8064;51.142;4.780;2024-02-28T02:18:41;8.73;;;6.00;;
15929;SDS011;8064;51.142;4.780;2024-02-28T02:21:08;8.60;;;6.07;;
15929;SDS011;8064;51.142;4.780;2024-02-28T02:23:36;8.20;;;6.60;;
15929;SDS011;8064;51.142;4.780;2024-02-28T02:26:06;9.40;;;5.73;;
15929;SDS011;8064;51.142;4.780;2024-02-28T02:28:32;7.53;;;5.97;;
15929;SDS011;8064;51.142;4.780;2024-02-28T02:30:58;8.07;;;6.67;;
15929;SDS011;8064;51.142;4.780;2024-02-28T02:33:24;8.70;;;7.10;;
15929;SDS011;8064;51.142;4.780;2024-02-28T02:35:49;9.60;;;7.13;;
15929;SDS011;8064;51.142;4.780;2024-02-28T02:38:15;9.33;;;7.07;;
15929;SDS011;8064;51.142;4.780;2024-02-28T02:40:41;12.20;;;7.30;;
15929;SDS011;8064;51.142;4.780;2024-02-28T02:43:07;9.30;;;6.30;;
15929;SDS011;8064;51.142;4.780;2024-02-28T02:45:32;7.40;;;6.03;;
15929;SDS011;8064;51.142;4.780;2024-02-28T02:47:58;7.17;;;5.27;;
15929;SDS011;8064;51.142;4.780;2024-02-28T02:50:24;6.40;;;5.33;;
15929;SDS011;8064;51.142;4.780;2024-02-28T02:52:49;7.20;;;5.50;;
15929;SDS011;8064;51.142;4.780;2024-02-28T02:55:15;10.90;;;6.10;;
15929;SDS011;8064;51.142;4.780;2024-02-28T02:57:41;8.17;;;6.37;;
15929;SDS011;8064;51.142;4.780;2024-02-28T03:00:08;7.50;;;5.93;;
15929;SDS011;8064;51.142;4.780;2024-02-28T03:02:34;7.37;;;5.63;;
15929;SDS011;8064;51.142;4.780;2024-02-28T03:05:03;6.93;;;5.57;;
15929;SDS011;8064;51.142;4.780;2024-02-28T03:07:29;6.80;;;6.10;;
15929;SDS011;8064;51.142;4.780;2024-02-28T03:09:55;8.50;;;6.93;;
15929;SDS011;8064;51.142;4.780;2024-02-28T03:12:21;9.53;;;6.50;;
15929;SDS011;8064;51.142;4.780;2024-02-28T03:14:47;9.10;;;7.00;;
15929;SDS011;8064;51.142;4.780;2024-02-28T03:17:13;12.93;;;7.70;;
15929;SDS011;8064;51.142;4.780;2024-02-28T03:19:40;11.97;;;7.20;;
15929;SDS011;8064;51.142;4.780;2024-02-28T03:22:06;10.23;;;7.47;;
15929;SDS011;8064;51.142;4.780;2024-02-28T03:24:32;10.67;;;8.10;;
15929;SDS011;8064;51.142;4.780;2024-02-28T03:27:01;12.33;;;8.40;;
15929;SDS011;8064;51.142;4.780;2024-02-28T03:29:27;11.27;;;7.77;;
15929;SDS011;8064;51.142;4.780;2024-02-28T03:31:53;12.50;;;7.40;;
15929;SDS011;8064;51.142;4.780;2024-02-28T03:34:19;9.37;;;7.27;;
15929;SDS011;8064;51.142;4.780;2024-02-28T03:36:44;11.73;;;7.90;;
15929;SDS011;8064;51.142;4.780;2024-02-28T03:39:11;10.37;;;7.37;;
15929;SDS011;8064;51.142;4.780;2024-02-28T03:41:36;9.23;;;7.67;;
15929;SDS011;8064;51.142;4.780;2024-02-28T03:44:03;11.97;;;8.57;;
15929;SDS011;8064;51.142;4.780;2024-02-28T03:46:29;12.80;;;8.97;;
15929;SDS011;8064;51.142;4.780;2024-02-28T03:48:55;14.97;;;9.47;;
15929;SDS011;8064;51.142;4.780;2024-02-28T03:51:20;10.50;;;9.03;;
15929;SDS011;8064;51.142;4.780;2024-02-28T03:53:46;10.87;;;8.63;;
15929;SDS011;8064;51.142;4.780;2024-02-28T03:56:12;11.80;;;8.73;;
15929;SDS011;8064;51.142;4.780;2024-02-28T04:01:05;10.27;;;8.60;;
15929;SDS011;8064;51.142;4.780;2024-02-28T04:03:31;15.60;;;10.07;;
15929;SDS011;8064;51.142;4.780;2024-02-28T04:05:56;12.33;;;10.00;;
15929;SDS011;8064;51.142;4.780;2024-02-28T04:08:23;15.03;;;10.17;;
15929;SDS011;8064;51.142;4.780;2024-02-28T04:10:49;11.87;;;9.70;;
15929;SDS011;8064;51.142;4.780;2024-02-28T04:13:16;12.07;;;9.20;;
15929;SDS011;8064;51.142;4.780;2024-02-28T04:15:41;12.77;;;9.47;;
15929;SDS011;8064;51.142;4.780;2024-02-28T04:18:10;13.27;;;9.80;;
15929;SDS011;8064;51.142;4.780;2024-02-28T04:20:36;12.13;;;10.07;;
15929;SDS011;8064;51.142;4.780;2024-02-28T04:23:03;14.77;;;10.20;;
15929;SDS011;8064;51.142;4.780;2024-02-28T04:25:29;12.50;;;9.73;;
15929;SDS011;8064;51.142;4.780;2024-02-28T04:27:55;14.53;;;9.60;;
15929;SDS011;8064;51.142;4.780;2024-02-28T04:30:22;12.10;;;9.23;;
15929;SDS011;8064;51.142;4.780;2024-02-28T04:32:48;14.40;;;10.27;;
15929;SDS011;8064;51.142;4.780;2024-02-28T04:35:14;16.03;;;10.60;;
15929;SDS011;8064;51.142;4.780;2024-02-28T04:37:43;14.87;;;11.00;;
15929;SDS011;8064;51.142;4.780;2024-02-28T04:40:10;15.97;;;10.37;;
15929;SDS011;8064;51.142;4.780;2024-02-28T04:42:36;13.47;;;10.67;;
15929;SDS011;8064;51.142;4.780;2024-02-28T04:45:03;14.40;;;10.60;;
15929;SDS011;8064;51.142;4.780;2024-02-28T04:47:29;15.63;;;11.27;;
15929;SDS011;8064;51.142;4.780;2024-02-28T04:49:55;14.57;;;10.80;;
15929;SDS011;8064;51.142;4.780;2024-02-28T04:52:21;13.60;;;11.27;;
15929;SDS011;8064;51.142;4.780;2024-02-28T04:54:47;14.53;;;10.30;;
15929;SDS011;8064;51.142;4.780;2024-02-28T04:57:13;14.50;;;11.43;;
15929;SDS011;8064;51.142;4.780;2024-02-28T04:59:39;15.00;;;11.07;;
15929;SDS011;8064;51.142;4.780;2024-02-28T05:02:06;13.83;;;10.70;;
15929;SDS011;8064;51.142;4.780;2024-02-28T05:04:31;15.47;;;11.87;;
15929;SDS011;8064;51.142;4.780;2024-02-28T05:06:57;16.60;;;11.73;;
15929;SDS011;8064;51.142;4.780;2024-02-28T05:09:23;15.57;;;11.53;;
15929;SDS011;8064;51.142;4.780;2024-02-28T05:11:49;16.97;;;11.50;;
15929;SDS011;8064;51.142;4.780;2024-02-28T05:14:14;15.50;;;11.47;;
15929;SDS011;8064;51.142;4.780;2024-02-28T05:16:40;16.37;;;12.60;;
15929;SDS011;8064;51.142;4.780;2024-02-28T05:19:06;15.63;;;11.70;;
15929;SDS011;8064;51.142;4.780;2024-02-28T05:21:32;17.50;;;11.70;;
15929;SDS011;8064;51.142;4.780;2024-02-28T05:24:04;13.77;;;10.23;;
15929;SDS011;8064;51.142;4.780;2024-02-28T05:26:30;21.40;;;12.23;;
15929;SDS011;8064;51.142;4.780;2024-02-28T05:28:58;15.50;;;11.43;;
15929;SDS011;8064;51.142;4.780;2024-02-28T05:31:25;17.67;;;11.50;;
15929;SDS011;8064;51.142;4.780;2024-02-28T05:33:51;16.23;;;11.63;;
15929;SDS011;8064;51.142;4.780;2024-02-28T05:36:19;16.33;;;12.57;;
15929;SDS011;8064;51.142;4.780;2024-02-28T05:38:46;15.03;;;11.63;;
15929;SDS011;8064;51.142;4.780;2024-02-28T05:41:12;16.40;;;11.83;;
15929;SDS011;8064;51.142;4.780;2024-02-28T05:43:39;15.17;;;11.63;;
15929;SDS011;8064;51.142;4.780;2024-02-28T05:46:06;17.77;;;11.63;;
15929;SDS011;8064;51.142;4.780;2024-02-28T05:48:31;23.23;;;11.77;;
15929;SDS011;8064;51.142;4.780;2024-02-28T05:50:57;17.27;;;11.33;;
15929;SDS011;8064;51.142;4.780;2024-02-28T05:53:25;16.37;;;12.07;;
15929;SDS011;8064;51.142;4.780;2024-02-28T05:55:52;13.70;;;10.77;;
15929;SDS011;8064;51.142;4.780;2024-02-28T05:58:18;16.40;;;11.97;;
15929;SDS011;8064;51.142;4.780;2024-02-28T06:00:44;15.03;;;11.53;;
15929;SDS011;8064;51.142;4.780;2024-02-28T06:03:10;16.77;;;11.77;;
15929;SDS011;8064;51.142;4.780;2024-02-28T06:05:36;16.43;;;12.27;;
15929;SDS011;8064;51.142;4.780;2024-02-28T06:08:02;14.67;;;11.27;;
15929;SDS011;8064;51.142;4.780;2024-02-28T06:10:27;15.57;;;11.50;;
15929;SDS011;8064;51.142;4.780;2024-02-28T06:12:53;14.13;;;11.57;;
15929;SDS011;8064;51.142;4.780;2024-02-28T06:15:19;20.30;;;12.03;;
15929;SDS011;8064;51.142;4.780;2024-02-28T06:17:45;16.10;;;11.50;;
15929;SDS011;8064;51.142;4.780;2024-02-28T06:20:10;15.73;;;10.97;;
15929;SDS011;8064;51.142;4.780;2024-02-28T06:22:36;16.30;;;11.17;;
15929;SDS011;8064;51.142;4.780;2024-02-28T06:25:02;15.70;;;11.03;;
15929;SDS011;8064;51.142;4.780;2024-02-28T06:27:32;17.37;;;11.77;;
15929;SDS011;8064;51.142;4.780;2024-02-28T06:29:58;16.27;;;11.30;;
15929;SDS011;8064;51.142;4.780;2024-02-28T06:32:24;18.67;;;12.20;;
15929;SDS011;8064;51.142;4.780;2024-02-28T06:34:50;15.57;;;10.90;;
15929;SDS011;8064;51.142;4.780;2024-02-28T06:37:16;17.13;;;11.07;;
15929;SDS011;8064;51.142;4.780;2024-02-28T06:39:42;16.60;;;12.23;;
15929;SDS011;8064;51.142;4.780;2024-02-28T06:42:07;14.63;;;11.67;;
15929;SDS011;8064;51.142;4.780;2024-02-28T06:44:33;16.23;;;11.63;;
15929;SDS011;8064;51.142;4.780;2024-02-28T06:46:59;14.83;;;11.03;;
15929;SDS011;8064;51.142;4.780;2024-02-28T06:49:24;19.37;;;12.93;;
15929;SDS011;8064;51.142;4.780;2024-02-28T06:51:50;17.83;;;12.50;;
15929;SDS011;8064;51.142;4.780;2024-02-28T06:54:16;20.87;;;13.03;;
15929;SDS011;8064;51.142;4.780;2024-02-28T06:56:42;25.47;;;14.67;;
15929;SDS011;8064;51.142;4.780;2024-02-28T06:59:07;29.40;;;15.53;;
15929;SDS011;8064;51.142;4.780;2024-02-28T07:01:33;26.80;;;17.10;;
15929;SDS011;8064;51.142;4.780;2024-02-28T07:03:59;20.13;;;14.57;;
15929;SDS011;8064;51.142;4.780;2024-02-28T07:06:25;21.30;;;14.47;;
15929;SDS011;8064;51.142;4.780;2024-02-28T07:08:50;20.10;;;14.63;;
15929;SDS011;8064;51.142;4.780;2024-02-28T07:11:16;20.43;;;14.40;;
15929;SDS011;8064;51.142;4.780;2024-02-28T07:13:42;19.60;;;14.63;;
15929;SDS011;8064;51.142;4.780;2024-02-28T07:16:07;18.30;;;13.50;;
15929;SDS011;8064;51.142;4.780;2024-02-28T07:18:33;20.47;;;13.37;;
15929;SDS011;8064;51.142;4.780;2024-02-28T07:20:59;18.83;;;12.90;;
15929;SDS011;8064;51.142;4.780;2024-02-28T07:23:25;19.87;;;13.57;;
15929;SDS011;8064;51.142;4.780;2024-02-28T07:25:51;16.17;;;12.67;;
15929;SDS011;8064;51.142;4.780;2024-02-28T07:28:17;19.13;;;12.03;;
15929;SDS011;8064;51.142;4.780;2024-02-28T07:30:43;16.67;;;11.87;;
15929;SDS011;8064;51.142;4.780;2024-02-28T07:33:10;18.87;;;13.00;;
15929;SDS011;8064;51.142;4.780;2024-02-28T07:35:44;18.20;;;11.63;;
15929;SDS011;8064;51.142;4.780;2024-02-28T07:38:10;15.37;;;12.07;;
15929;SDS011;8064;51.142;4.780;2024-02-28T07:40:37;18.67;;;12.53;;
15929;SDS011;8064;51.142;4.780;2024-02-28T07:43:03;16.00;;;12.20;;
15929;SDS011;8064;51.142;4.780;2024-02-28T07:45:28;16.20;;;12.17;;
15929;SDS011;8064;51.142;4.780;2024-02-28T07:47:54;18.47;;;11.97;;
15929;SDS011;8064;51.142;4.780;2024-02-28T07:50:20;15.30;;;10.63;;
15929;SDS011;8064;51.142;4.780;2024-02-28T07:52:45;18.03;;;11.87;;
15929;SDS011;8064;51.142;4.780;2024-02-28T07:55:11;15.20;;;11.00;;
15929;SDS011;8064;51.142;4.780;2024-02-28T07:57:37;20.07;;;12.60;;
15929;SDS011;8064;51.142;4.780;2024-02-28T08:00:03;16.17;;;11.70;;
15929;SDS011;8064;51.142;4.780;2024-02-28T08:02:29;19.87;;;11.17;;
15929;SDS011;8064;51.142;4.780;2024-02-28T08:04:56;17.93;;;11.77;;
15929;SDS011;8064;51.142;4.780;2024-02-28T08:07:21;15.03;;;11.63;;
15929;SDS011;8064;51.142;4.780;2024-02-28T08:09:47;16.20;;;11.50;;
15929;SDS011;8064;51.142;4.780;2024-02-28T08:12:13;14.53;;;11.43;;
15929;SDS011;8064;51.142;4.780;2024-02-28T08:14:39;17.50;;;12.53;;
15929;SDS011;8064;51.142;4.780;2024-02-28T08:17:04;19.10;;;13.33;;
15929;SDS011;8064;51.142;4.780;2024-02-28T08:19:30;18.60;;;12.60;;
15929;SDS011;8064;51.142;4.780;2024-02-28T08:21:56;33.63;;;20.43;;
15929;SDS011;8064;51.142;4.780;2024-02-28T08:24:21;22.80;;;16.00;;
15929;SDS011;8064;51.142;4.780;2024-02-28T08:26:47;32.20;;;20.97;;
15929;SDS011;8064;51.142;4.780;2024-02-28T08:29:13;32.37;;;18.60;;
15929;SDS011;8064;51.142;4.780;2024-02-28T08:31:39;33.10;;;21.93;;
15929;SDS011;8064;51.142;4.780;2024-02-28T08:34:06;24.17;;;16.57;;
15929;SDS011;8064;51.142;4.780;2024-02-28T08:36:32;18.47;;;14.00;;
15929;SDS011;8064;51.142;4.780;2024-02-28T08:38:58;21.00;;;14.73;;
15929;SDS011;8064;51.142;4.780;2024-02-28T08:41:24;21.73;;;15.17;;
15929;SDS011;8064;51.142;4.780;2024-02-28T08:43:50;26.53;;;15.87;;
15929;SDS011;8064;51.142;4.780;2024-02-28T08:46:15;20.27;;;15.10;;
15929;SDS011;8064;51.142;4.780;2024-02-28T08:48:42;24.03;;;17.13;;
15929;SDS011;8064;51.142;4.780;2024-02-28T08:51:08;20.83;;;14.83;;
15929;SDS011;8064;51.142;4.780;2024-02-28T08:53:33;24.23;;;15.87;;
15929;SDS011;8064;51.142;4.780;2024-02-28T08:55:59;25.40;;;15.67;;
15929;SDS011;8064;51.142;4.780;2024-02-28T08:58:25;23.37;;;15.20;;
15929;SDS011;8064;51.142;4.780;2024-02-28T09:00:51;20.97;;;15.30;;
15929;SDS011;8064;51.142;4.780;2024-02-28T09:03:17;24.23;;;15.90;;
15929;SDS011;8064;51.142;4.780;2024-02-28T09:05:44;22.90;;;16.13;;
15929;SDS011;8064;51.142;4.780;2024-02-28T09:08:10;23.60;;;16.03;;
15929;SDS011;8064;51.142;4.780;2024-02-28T09:10:36;23.63;;;15.73;;
15929;SDS011;8064;51.142;4.780;2024-02-28T09:13:01;19.90;;;15.20;;
15929;SDS011;8064;51.142;4.780;2024-02-28T09:15:27;24.77;;;16.20;;
15929;SDS011;8064;51.142;4.780;2024-02-28T09:17:53;28.63;;;15.77;;
15929;SDS011;8064;51.142;4.780;2024-02-28T09:20:19;23.50;;;15.10;;
15929;SDS011;8064;51.142;4.780;2024-02-28T09:22:45;22.37;;;15.40;;
15929;SDS011;8064;51.142;4.780;2024-02-28T09:25:10;23.20;;;15.33;;
15929;SDS011;8064;51.142;4.780;2024-02-28T09:27:36;25.27;;;16.13;;
15929;SDS011;8064;51.142;4.780;2024-02-28T09:30:02;25.57;;;15.83;;
15929;SDS011;8064;51.142;4.780;2024-02-28T09:32:28;22.20;;;14.70;;
15929;SDS011;8064;51.142;4.780;2024-02-28T09:34:54;20.27;;;14.93;;
15929;SDS011;8064;51.142;4.780;2024-02-28T09:37:20;22.90;;;15.47;;
15929;SDS011;8064;51.142;4.780;2024-02-28T09:39:47;20.60;;;15.20;;
15929;SDS011;8064;51.142;4.780;2024-02-28T09:42:13;20.37;;;14.83;;
15929;SDS011;8064;51.142;4.780;2024-02-28T09:44:40;25.23;;;14.93;;
15929;SDS011;8064;51.142;4.780;2024-02-28T09:47:07;22.57;;;14.97;;
15929;SDS011;8064;51.142;4.780;2024-02-28T09:49:33;20.47;;;14.30;;
15929;SDS011;8064;51.142;4.780;2024-02-28T09:52:02;22.67;;;14.53;;
15929;SDS011;8064;51.142;4.780;2024-02-28T09:54:29;26.83;;;15.23;;
15929;SDS011;8064;51.142;4.780;2024-02-28T09:56:55;22.07;;;14.77;;
15929;SDS011;8064;51.142;4.780;2024-02-28T09:59:21;21.70;;;14.93;;
15929;SDS011;8064;51.142;4.780;2024-02-28T10:01:53;22.40;;;14.80;;
15929;SDS011;8064;51.142;4.780;2024-02-28T10:04:23;23.83;;;14.93;;
15929;SDS011;8064;51.142;4.780;2024-02-28T10:06:51;25.33;;;14.80;;
15929;SDS011;8064;51.142;4.780;2024-02-28T10:09:16;22.77;;;15.10;;
15929;SDS011;8064;51.142;4.780;2024-02-28T10:11:42;24.60;;;15.30;;
15929;SDS011;8064;51.142;4.780;2024-02-28T10:14:09;23.93;;;14.87;;
15929;SDS011;8064;51.142;4.780;2024-02-28T10:16:35;25.40;;;15.20;;
15929;SDS011;8064;51.142;4.780;2024-02-28T10:19:01;22.87;;;14.57;;
15929;SDS011;8064;51.142;4.780;2024-02-28T10:21:29;22.83;;;14.83;;
15929;SDS011;8064;51.142;4.780;2024-02-28T10:23:58;23.83;;;15.43;;
15929;SDS011;8064;51.142;4.780;2024-02-28T10:26:24;21.47;;;14.17;;
15929;SDS011;8064;51.142;4.780;2024-02-28T10:28:50;25.20;;;14.03;;
15929;SDS011;8064;51.142;4.780;2024-02-28T10:31:17;23.53;;;14.33;;
15929;SDS011;8064;51.142;4.780;2024-02-28T10:33:42;20.10;;;13.73;;
15929;SDS011;8064;51.142;4.780;2024-02-28T10:36:08;17.43;;;12.90;;
15929;SDS011;8064;51.142;4.780;2024-02-28T10:38:35;21.60;;;13.43;;
15929;SDS011;8064;51.142;4.780;2024-02-28T10:41:02;21.37;;;13.27;;
15929;SDS011;8064;51.142;4.780;2024-02-28T10:43:29;26.97;;;13.60;;
15929;SDS011;8064;51.142;4.780;2024-02-28T10:45:58;21.97;;;13.90;;
15929;SDS011;8064;51.142;4.780;2024-02-28T10:48:24;21.33;;;13.63;;
15929;SDS011;8064;51.142;4.780;2024-02-28T10:50:51;21.80;;;14.07;;
15929;SDS011;8064;51.142;4.780;2024-02-28T10:53:21;19.83;;;12.37;;
15929;SDS011;8064;51.142;4.780;2024-02-28T10:55:49;18.47;;;12.20;;
15929;SDS011;8064;51.142;4.780;2024-02-28T10:58:16;21.47;;;12.33;;
15929;SDS011;8064;51.142;4.780;2024-02-28T11:00:45;20.70;;;12.60;;
15929;SDS011;8064;51.142;4.780;2024-02-28T11:03:12;18.17;;;12.43;;
15929;SDS011;8064;51.142;4.780;2024-02-28T11:05:43;18.90;;;11.47;;
15929;SDS011;8064;51.142;4.780;2024-02-28T11:08:21;16.77;;;11.60;;
15929;SDS011;8064;51.142;4.780;2024-02-28T11:10:55;17.00;;;11.50;;
15929;SDS011;8064;51.142;4.780;2024-02-28T11:13:22;15.90;;;11.57;;
15929;SDS011;8064;51.142;4.780;2024-02-28T11:15:49;21.70;;;12.00;;
15929;SDS011;8064;51.142;4.780;2024-02-28T11:18:15;18.40;;;12.10;;
15929;SDS011;8064;51.142;4.780;2024-02-28T11:20:42;21.63;;;12.40;;
15929;SDS011;8064;51.142;4.780;2024-02-28T11:23:11;18.07;;;11.60;;
15929;SDS011;8064;51.142;4.780;2024-02-28T11:25:37;19.20;;;11.80;;
15929;SDS011;8064;51.142;4.780;2024-02-28T11:28:03;17.70;;;11.10;;
15929;SDS011;8064;51.142;4.780;2024-02-28T11:30:30;18.90;;;11.20;;
15929;SDS011;8064;51.142;4.780;2024-02-28T11:32:56;19.83;;;11.73;;
15929;SDS011;8064;51.142;4.780;2024-02-28T11:35:24;17.00;;;11.30;;
15929;SDS011;8064;51.142;4.780;2024-02-28T11:37:50;17.07;;;10.50;;
15929;SDS011;8064;51.142;4.780;2024-02-28T11:40:19;16.67;;;11.53;;
15929;SDS011;8064;51.142;4.780;2024-02-28T11:42:44;18.47;;;11.57;;
15929;SDS011;8064;51.142;4.780;2024-02-28T11:45:10;18.40;;;11.37;;
15929;SDS011;8064;51.142;4.780;2024-02-28T11:47:36;16.83;;;10.13;;
15929;SDS011;8064;51.142;4.780;2024-02-28T11:50:02;17.43;;;10.07;;
15929;SDS011;8064;51.142;4.780;2024-02-28T11:52:30;16.53;;;10.77;;
15929;SDS011;8064;51.142;4.780;2024-02-28T11:54:56;15.63;;;10.10;;
15929;SDS011;8064;51.142;4.780;2024-02-28T11:57:22;15.87;;;10.47;;
15929;SDS011;8064;51.142;4.780;2024-02-28T11:59:47;17.73;;;10.80;;
15929;SDS011;8064;51.142;4.780;2024-02-28T12:02:14;14.40;;;9.80;;
15929;SDS011;8064;51.142;4.780;2024-02-28T12:04:42;19.30;;;10.90;;
15929;SDS011;8064;51.142;4.780;2024-02-28T12:07:08;14.13;;;9.33;;
15929;SDS011;8064;51.142;4.780;2024-02-28T12:09:34;15.50;;;10.37;;
15929;SDS011;8064;51.142;4.780;2024-02-28T12:12:01;15.73;;;9.20;;
15929;SDS011;8064;51.142;4.780;2024-02-28T12:14:31;16.80;;;9.97;;
15929;SDS011;8064;51.142;4.780;2024-02-28T12:16:57;16.13;;;10.07;;
15929;SDS011;8064;51.142;4.780;2024-02-28T12:19:23;13.97;;;8.73;;
15929;SDS011;8064;51.142;4.780;2024-02-28T12:21:49;12.90;;;8.77;;
15929;SDS011;8064;51.142;4.780;2024-02-28T12:24:15;15.90;;;8.90;;
15929;SDS011;8064;51.142;4.780;2024-02-28T12:26:41;11.30;;;8.27;;
15929;SDS011;8064;51.142;4.780;2024-02-28T12:29:07;15.00;;;8.77;;
15929;SDS011;8064;51.142;4.780;2024-02-28T12:31:35;13.13;;;8.30;;
15929;SDS011;8064;51.142;4.780;2024-02-28T12:34:01;12.97;;;8.27;;
15929;SDS011;8064;51.142;4.780;2024-02-28T12:36:28;13.57;;;8.50;;
15929;SDS011;8064;51.142;4.780;2024-02-28T12:38:56;12.20;;;7.93;;
15929;SDS011;8064;51.142;4.780;2024-02-28T12:41:22;12.77;;;8.90;;
15929;SDS011;8064;51.142;4.780;2024-02-28T12:43:48;11.37;;;7.20;;
15929;SDS011;8064;51.142;4.780;2024-02-28T12:46:15;12.33;;;7.67;;
15929;SDS011;8064;51.142;4.780;2024-02-28T12:48:41;10.70;;;7.23;;
15929;SDS011;8064;51.142;4.780;2024-02-28T12:51:08;11.47;;;7.00;;
15929;SDS011;8064;51.142;4.780;2024-02-28T12:53:38;10.53;;;7.27;;
15929;SDS011;8064;51.142;4.780;2024-02-28T12:56:05;11.67;;;7.07;;
15929;SDS011;8064;51.142;4.780;2024-02-28T12:58:31;13.93;;;8.13;;
15929;SDS011;8064;51.142;4.780;2024-02-28T13:00:57;13.97;;;9.47;;
15929;SDS011;8064;51.142;4.780;2024-02-28T13:03:22;12.17;;;8.53;;
15929;SDS011;8064;51.142;4.780;2024-02-28T13:05:48;11.37;;;8.10;;
15929;SDS011;8064;51.142;4.780;2024-02-28T13:08:14;9.10;;;6.37;;
15929;SDS011;8064;51.142;4.780;2024-02-28T13:10:40;10.87;;;6.67;;
15929;SDS011;8064;51.142;4.780;2024-02-28T13:13:06;12.77;;;6.70;;
15929;SDS011;8064;51.142;4.780;2024-02-28T13:15:32;12.10;;;7.10;;
15929;SDS011;8064;51.142;4.780;2024-02-28T13:17:59;10.20;;;6.60;;
15929;SDS011;8064;51.142;4.780;2024-02-28T13:20:27;12.73;;;7.23;;
15929;SDS011;8064;51.142;4.780;2024-02-28T13:22:52;10.27;;;6.73;;
15929;SDS011;8064;51.142;4.780;2024-02-28T13:25:18;11.30;;;7.20;;
15929;SDS011;8064;51.142;4.780;2024-02-28T13:27:45;9.63;;;6.90;;
15929;SDS011;8064;51.142;4.780;2024-02-28T13:30:11;13.73;;;7.23;;
15929;SDS011;8064;51.142;4.780;2024-02-28T13:32:38;11.60;;;7.60;;
15929;SDS011;8064;51.142;4.780;2024-02-28T13:35:04;11.30;;;6.73;;
15929;SDS011;8064;51.142;4.780;2024-02-28T13:37:30;11.37;;;6.80;;
15929;SDS011;8064;51.142;4.780;2024-02-28T13:39:58;12.37;;;7.20;;
15929;SDS011;8064;51.142;4.780;2024-02-28T13:42:23;12.07;;;7.37;;
15929;SDS011;8064;51.142;4.780;2024-02-28T13:44:49;8.33;;;6.50;;
15929;SDS011;8064;51.142;4.780;2024-02-28T13:47:15;7.23;;;6.17;;
15929;SDS011;8064;51.142;4.780;2024-02-28T13:49:41;9.20;;;6.73;;
15929;SDS011;8064;51.142;4.780;2024-02-28T13:52:07;9.93;;;6.60;;
15929;SDS011;8064;51.142;4.780;2024-02-28T13:54:32;11.50;;;6.90;;
15929;SDS011;8064;51.142;4.780;2024-02-28T13:56:59;10.47;;;6.57;;
15929;SDS011;8064;51.142;4.780;2024-02-28T13:59:26;9.90;;;6.70;;
15929;SDS011;8064;51.142;4.780;2024-02-28T14:01:52;10.13;;;6.63;;
15929;SDS011;8064;51.142;4.780;2024-02-28T14:04:18;10.23;;;6.77;;
15929;SDS011;8064;51.142;4.780;2024-02-28T14:06:44;10.30;;;6.23;;
15929;SDS011;8064;51.142;4.780;2024-02-28T14:09:11;10.20;;;6.60;;
15929;SDS011;8064;51.142;4.780;2024-02-28T14:11:37;12.00;;;7.23;;
15929;SDS011;8064;51.142;4.780;2024-02-28T14:14:02;11.77;;;8.10;;
15929;SDS011;8064;51.142;4.780;2024-02-28T14:16:29;29.73;;;20.97;;
15929;SDS011;8064;51.142;4.780;2024-02-28T14:18:57;13.77;;;9.23;;
15929;SDS011;8064;51.142;4.780;2024-02-28T14:21:23;12.23;;;8.63;;
15929;SDS011;8064;51.142;4.780;2024-02-28T14:23:49;8.70;;;6.47;;
15929;SDS011;8064;51.142;4.780;2024-02-28T14:26:16;9.70;;;6.30;;
15929;SDS011;8064;51.142;4.780;2024-02-28T14:28:42;7.63;;;5.20;;
15929;SDS011;8064;51.142;4.780;2024-02-28T14:31:08;8.83;;;5.27;;
15929;SDS011;8064;51.142;4.780;2024-02-28T14:33:34;9.70;;;4.77;;
15929;SDS011;8064;51.142;4.780;2024-02-28T14:36:01;7.63;;;5.20;;
15929;SDS011;8064;51.142;4.780;2024-02-28T14:38:30;8.37;;;5.30;;
15929;SDS011;8064;51.142;4.780;2024-02-28T14:40:56;7.27;;;4.53;;